sensor_id;sensor_type;location;lat;lon;timestamp;P1;durP1;ratioP1;P2;durP2;ratioP2
24143;SDS011;12307;50.828;6.080;2022-10-18T00:00:26;1.50;;;1.40;;
24143;SDS011;12307;50.828;6.080;2022-10-18T00:02:52;1.40;;;1.15;;
24143;SDS011;12307;50.828;6.080;2022-10-18T00:05:18;1.77;;;1.30;;
24143;SDS011;12307;50.828;6.080;2022-10-18T00:07:43;2.17;;;1.50;;
24143;SDS011;12307;50.828;6.080;2022-10-18T00:10:09;1.77;;;1.20;;
24143;SDS011;12307;50.828;6.080;2022-10-18T00:12:35;1.63;;;1.42;;
24143;SDS011;12307;50.828;6.080;2022-10-18T00:15:03;2.10;;;1.40;;
24143;SDS011;12307;50.828;6.080;2022-10-18T00:17:30;2.05;;;1.40;;
24143;SDS011;12307;50.828;6.080;2022-10-18T00:19:57;1.52;;;1.25;;
24143;SDS011;12307;50.828;6.080;2022-10-18T00:22:23;2.03;;;1.10;;
24143;SDS011;12307;50.828;6.080;2022-10-18T00:24:49;1.55;;;1.42;;
24143;SDS011;12307;50.828;6.080;2022-10-18T00:27:15;2.38;;;1.30;;
24143;SDS011;12307;50.828;6.080;2022-10-18T00:29:41;2.22;;;1.30;;
24143;SDS011;12307;50.828;6.080;2022-10-18T00:32:08;1.95;;;1.45;;
24143;SDS011;12307;50.828;6.080;2022-10-18T00:34:36;1.50;;;1.40;;
24143;SDS011;12307;50.828;6.080;2022-10-18T00:37:02;1.42;;;1.30;;
24143;SDS011;12307;50.828;6.080;2022-10-18T00:39:27;1.48;;;1.20;;
24143;SDS011;12307;50.828;6.080;2022-10-18T00:41:53;1.73;;;1.50;;
24143;SDS011;12307;50.828;6.080;2022-10-18T00:47:29;1.90;;;1.50;;
24143;SDS011;12307;50.828;6.080;2022-10-18T00:49:56;1.52;;;1.38;;
24143;SDS011;12307;50.828;6.080;2022-10-18T00:52:28;1.55;;;1.40;;
24143;SDS011;12307;50.828;6.080;2022-10-18T00:54:58;1.30;;;1.20;;
24143;SDS011;12307;50.828;6.080;2022-10-18T00:57:25;1.50;;;1.40;;
24143;SDS011;12307;50.828;6.080;2022-10-18T00:59:50;2.33;;;1.50;;
24143;SDS011;12307;50.828;6.080;2022-10-18T01:02:17;1.52;;;1.30;;
24143;SDS011;12307;50.828;6.080;2022-10-18T01:04:45;1.90;;;1.15;;
24143;SDS011;12307;50.828;6.080;2022-10-18T01:07:13;1.67;;;1.30;;
24143;SDS011;12307;50.828;6.080;2022-10-18T01:09:48;1.63;;;1.30;;
24143;SDS011;12307;50.828;6.080;2022-10-18T01:12:23;1.40;;;1.30;;
24143;SDS011;12307;50.828;6.080;2022-10-18T01:14:58;1.45;;;1.35;;
24143;SDS011;12307;50.828;6.080;2022-10-18T01:17:31;1.80;;;1.30;;
24143;SDS011;12307;50.828;6.080;2022-10-18T01:20:16;1.30;;;1.20;;
24143;SDS011;12307;50.828;6.080;2022-10-18T01:22:56;1.73;;;1.42;;
24143;SDS011;12307;50.828;6.080;2022-10-18T01:25:35;1.75;;;1.30;;
24143;SDS011;12307;50.828;6.080;2022-10-18T01:28:08;1.98;;;1.40;;
24143;SDS011;12307;50.828;6.080;2022-10-18T01:30:50;1.60;;;1.33;;
24143;SDS011;12307;50.828;6.080;2022-10-18T01:33:24;1.30;;;1.20;;
24143;SDS011;12307;50.828;6.080;2022-10-18T01:35:55;1.90;;;1.30;;
24143;SDS011;12307;50.828;6.080;2022-10-18T01:38:25;1.50;;;1.40;;
24143;SDS011;12307;50.828;6.080;2022-10-18T01:40:53;1.55;;;1.40;;
24143;SDS011;12307;50.828;6.080;2022-10-18T01:43:20;1.50;;;1.30;;
24143;SDS011;12307;50.828;6.080;2022-10-18T01:45:49;1.40;;;1.15;;
24143;SDS011;12307;50.828;6.080;2022-10-18T01:48:17;1.50;;;1.40;;
24143;SDS011;12307;50.828;6.080;2022-10-18T01:50:44;1.42;;;1.20;;
24143;SDS011;12307;50.828;6.080;2022-10-18T01:53:22;1.83;;;1.58;;
24143;SDS011;12307;50.828;6.080;2022-10-18T01:55:53;2.08;;;1.30;;
24143;SDS011;12307;50.828;6.080;2022-10-18T01:58:27;1.65;;;1.50;;
24143;SDS011;12307;50.828;6.080;2022-10-18T02:00:59;1.40;;;1.30;;
24143;SDS011;12307;50.828;6.080;2022-10-18T02:03:29;1.40;;;1.30;;
24143;SDS011;12307;50.828;6.080;2022-10-18T02:05:55;1.40;;;1.30;;
24143;SDS011;12307;50.828;6.080;2022-10-18T02:08:24;1.33;;;1.23;;
24143;SDS011;12307;50.828;6.080;2022-10-18T02:10:57;1.30;;;1.20;;
24143;SDS011;12307;50.828;6.080;2022-10-18T02:13:28;1.83;;;1.30;;
24143;SDS011;12307;50.828;6.080;2022-10-18T02:15:59;1.38;;;1.25;;
24143;SDS011;12307;50.828;6.080;2022-10-18T02:18:33;1.65;;;1.30;;
24143;SDS011;12307;50.828;6.080;2022-10-18T02:21:02;1.50;;;1.40;;
24143;SDS011;12307;50.828;6.080;2022-10-18T02:23:30;1.30;;;1.17;;
24143;SDS011;12307;50.828;6.080;2022-10-18T02:25:56;1.83;;;1.20;;
24143;SDS011;12307;50.828;6.080;2022-10-18T02:28:22;1.27;;;1.17;;
24143;SDS011;12307;50.828;6.080;2022-10-18T02:30:50;1.98;;;1.40;;
24143;SDS011;12307;50.828;6.080;2022-10-18T02:33:25;1.65;;;1.10;;
24143;SDS011;12307;50.828;6.080;2022-10-18T02:35:58;1.10;;;1.00;;
24143;SDS011;12307;50.828;6.080;2022-10-18T02:38:28;1.40;;;1.20;;
24143;SDS011;12307;50.828;6.080;2022-10-18T02:40:55;1.50;;;1.30;;
24143;SDS011;12307;50.828;6.080;2022-10-18T02:43:23;1.17;;;1.08;;
24143;SDS011;12307;50.828;6.080;2022-10-18T02:45:48;2.42;;;1.60;;
24143;SDS011;12307;50.828;6.080;2022-10-18T02:48:14;1.50;;;1.15;;
24143;SDS011;12307;50.828;6.080;2022-10-18T02:50:41;1.50;;;1.40;;
24143;SDS011;12307;50.828;6.080;2022-10-18T02:53:07;1.50;;;1.25;;
24143;SDS011;12307;50.828;6.080;2022-10-18T02:55:32;1.27;;;1.17;;
24143;SDS011;12307;50.828;6.080;2022-10-18T02:57:58;1.88;;;1.30;;
24143;SDS011;12307;50.828;6.080;2022-10-18T03:00:24;1.20;;;1.10;;
24143;SDS011;12307;50.828;6.080;2022-10-18T03:02:49;0.90;;;0.90;;
24143;SDS011;12307;50.828;6.080;2022-10-18T03:05:16;2.55;;;1.38;;
24143;SDS011;12307;50.828;6.080;2022-10-18T03:07:43;1.33;;;1.20;;
24143;SDS011;12307;50.828;6.080;2022-10-18T03:10:09;1.40;;;1.30;;
24143;SDS011;12307;50.828;6.080;2022-10-18T03:12:35;1.30;;;1.20;;
24143;SDS011;12307;50.828;6.080;2022-10-18T03:15:00;1.90;;;1.52;;
24143;SDS011;12307;50.828;6.080;2022-10-18T03:17:26;1.83;;;1.40;;
24143;SDS011;12307;50.828;6.080;2022-10-18T03:19:52;1.52;;;1.00;;
24143;SDS011;12307;50.828;6.080;2022-10-18T03:22:18;1.58;;;1.15;;
24143;SDS011;12307;50.828;6.080;2022-10-18T03:24:45;1.70;;;1.30;;
24143;SDS011;12307;50.828;6.080;2022-10-18T03:27:10;1.77;;;1.30;;
24143;SDS011;12307;50.828;6.080;2022-10-18T03:29:36;1.50;;;1.40;;
24143;SDS011;12307;50.828;6.080;2022-10-18T03:32:02;1.52;;;1.20;;
24143;SDS011;12307;50.828;6.080;2022-10-18T03:34:27;1.80;;;1.30;;
24143;SDS011;12307;50.828;6.080;2022-10-18T03:36:53;1.38;;;1.27;;
24143;SDS011;12307;50.828;6.080;2022-10-18T03:39:19;1.50;;;1.40;;
24143;SDS011;12307;50.828;6.080;2022-10-18T03:41:46;1.88;;;1.67;;
24143;SDS011;12307;50.828;6.080;2022-10-18T03:44:11;1.38;;;1.27;;
24143;SDS011;12307;50.828;6.080;2022-10-18T03:46:37;1.38;;;1.27;;
24143;SDS011;12307;50.828;6.080;2022-10-18T03:49:03;1.50;;;1.05;;
24143;SDS011;12307;50.828;6.080;2022-10-18T03:51:28;1.30;;;1.20;;
24143;SDS011;12307;50.828;6.080;2022-10-18T03:53:54;2.30;;;1.30;;
24143;SDS011;12307;50.828;6.080;2022-10-18T03:56:19;1.10;;;1.00;;
24143;SDS011;12307;50.828;6.080;2022-10-18T03:58:46;1.30;;;1.20;;
24143;SDS011;12307;50.828;6.080;2022-10-18T04:01:12;1.52;;;1.20;;
24143;SDS011;12307;50.828;6.080;2022-10-18T04:03:38;1.67;;;1.23;;
24143;SDS011;12307;50.828;6.080;2022-10-18T04:06:03;1.83;;;1.17;;
24143;SDS011;12307;50.828;6.080;2022-10-18T04:08:29;1.20;;;1.10;;
24143;SDS011;12307;50.828;6.080;2022-10-18T04:10:55;1.55;;;1.23;;
24143;SDS011;12307;50.828;6.080;2022-10-18T04:13:21;1.20;;;1.10;;
24143;SDS011;12307;50.828;6.080;2022-10-18T04:15:47;1.40;;;1.10;;
24143;SDS011;12307;50.828;6.080;2022-10-18T04:18:13;1.13;;;1.05;;
24143;SDS011;12307;50.828;6.080;2022-10-18T04:20:39;1.23;;;1.10;;
24143;SDS011;12307;50.828;6.080;2022-10-18T04:23:04;1.15;;;1.05;;
24143;SDS011;12307;50.828;6.080;2022-10-18T04:25:30;1.30;;;1.10;;
24143;SDS011;12307;50.828;6.080;2022-10-18T04:27:56;1.40;;;1.15;;
24143;SDS011;12307;50.828;6.080;2022-10-18T04:30:21;1.58;;;1.30;;
24143;SDS011;12307;50.828;6.080;2022-10-18T04:32:48;1.20;;;1.10;;
24143;SDS011;12307;50.828;6.080;2022-10-18T04:35:14;1.30;;;1.20;;
24143;SDS011;12307;50.828;6.080;2022-10-18T04:37:40;1.83;;;1.55;;
24143;SDS011;12307;50.828;6.080;2022-10-18T04:40:06;1.23;;;1.13;;
24143;SDS011;12307;50.828;6.080;2022-10-18T04:42:32;1.75;;;1.38;;
24143;SDS011;12307;50.828;6.080;2022-10-18T04:44:58;1.25;;;1.13;;
24143;SDS011;12307;50.828;6.080;2022-10-18T04:47:24;1.45;;;1.20;;
24143;SDS011;12307;50.828;6.080;2022-10-18T04:49:51;1.25;;;1.10;;
24143;SDS011;12307;50.828;6.080;2022-10-18T04:52:16;1.30;;;1.02;;
24143;SDS011;12307;50.828;6.080;2022-10-18T04:54:42;1.48;;;1.00;;
24143;SDS011;12307;50.828;6.080;2022-10-18T04:57:08;1.27;;;1.17;;
24143;SDS011;12307;50.828;6.080;2022-10-18T04:59:33;1.63;;;1.13;;
24143;SDS011;12307;50.828;6.080;2022-10-18T05:01:59;1.20;;;1.10;;
24143;SDS011;12307;50.828;6.080;2022-10-18T05:04:25;1.10;;;1.00;;
24143;SDS011;12307;50.828;6.080;2022-10-18T05:06:52;1.25;;;1.02;;
24143;SDS011;12307;50.828;6.080;2022-10-18T05:09:17;1.20;;;1.10;;
24143;SDS011;12307;50.828;6.080;2022-10-18T05:11:43;1.13;;;1.00;;
24143;SDS011;12307;50.828;6.080;2022-10-18T05:14:09;1.30;;;1.10;;
24143;SDS011;12307;50.828;6.080;2022-10-18T05:16:34;2.03;;;1.30;;
24143;SDS011;12307;50.828;6.080;2022-10-18T05:19:00;1.17;;;1.08;;
24143;SDS011;12307;50.828;6.080;2022-10-18T05:21:27;1.45;;;1.17;;
24143;SDS011;12307;50.828;6.080;2022-10-18T05:23:55;1.15;;;1.00;;
24143;SDS011;12307;50.828;6.080;2022-10-18T05:26:20;1.30;;;1.20;;
24143;SDS011;12307;50.828;6.080;2022-10-18T05:28:47;1.98;;;1.20;;
24143;SDS011;12307;50.828;6.080;2022-10-18T05:31:13;1.20;;;1.10;;
24143;SDS011;12307;50.828;6.080;2022-10-18T05:33:39;1.65;;;1.00;;
24143;SDS011;12307;50.828;6.080;2022-10-18T05:36:05;1.10;;;1.00;;
24143;SDS011;12307;50.828;6.080;2022-10-18T05:38:31;1.50;;;1.23;;
24143;SDS011;12307;50.828;6.080;2022-10-18T05:40:58;2.00;;;1.30;;
24143;SDS011;12307;50.828;6.080;2022-10-18T05:43:27;1.02;;;0.95;;
24143;SDS011;12307;50.828;6.080;2022-10-18T05:45:53;2.47;;;1.17;;
24143;SDS011;12307;50.828;6.080;2022-10-18T05:48:19;1.73;;;1.35;;
24143;SDS011;12307;50.828;6.080;2022-10-18T05:50:45;1.15;;;0.85;;
24143;SDS011;12307;50.828;6.080;2022-10-18T05:53:11;1.02;;;1.00;;
24143;SDS011;12307;50.828;6.080;2022-10-18T05:55:36;1.25;;;1.13;;
24143;SDS011;12307;50.828;6.080;2022-10-18T05:58:03;1.38;;;1.27;;
24143;SDS011;12307;50.828;6.080;2022-10-18T06:00:29;1.35;;;1.20;;
24143;SDS011;12307;50.828;6.080;2022-10-18T06:02:55;1.30;;;1.08;;
24143;SDS011;12307;50.828;6.080;2022-10-18T06:05:20;1.60;;;1.10;;
24143;SDS011;12307;50.828;6.080;2022-10-18T06:07:46;2.00;;;1.10;;
24143;SDS011;12307;50.828;6.080;2022-10-18T06:10:12;1.42;;;1.33;;
24143;SDS011;12307;50.828;6.080;2022-10-18T06:12:37;1.10;;;1.02;;
24143;SDS011;12307;50.828;6.080;2022-10-18T06:15:05;1.50;;;1.10;;
24143;SDS011;12307;50.828;6.080;2022-10-18T06:17:31;1.42;;;1.33;;
24143;SDS011;12307;50.828;6.080;2022-10-18T06:19:57;1.63;;;1.45;;
24143;SDS011;12307;50.828;6.080;2022-10-18T06:22:22;1.50;;;1.23;;
24143;SDS011;12307;50.828;6.080;2022-10-18T06:24:48;1.30;;;1.20;;
24143;SDS011;12307;50.828;6.080;2022-10-18T06:27:14;1.35;;;1.25;;
24143;SDS011;12307;50.828;6.080;2022-10-18T06:29:39;1.45;;;1.23;;
24143;SDS011;12307;50.828;6.080;2022-10-18T06:32:06;1.35;;;1.25;;
24143;SDS011;12307;50.828;6.080;2022-10-18T06:34:32;1.40;;;1.30;;
24143;SDS011;12307;50.828;6.080;2022-10-18T06:36:58;1.25;;;1.15;;
24143;SDS011;12307;50.828;6.080;2022-10-18T06:39:24;1.75;;;1.38;;
24143;SDS011;12307;50.828;6.080;2022-10-18T06:41:50;1.42;;;1.30;;
24143;SDS011;12307;50.828;6.080;2022-10-18T06:44:15;1.40;;;1.30;;
24143;SDS011;12307;50.828;6.080;2022-10-18T06:46:42;1.73;;;1.30;;
24143;SDS011;12307;50.828;6.080;2022-10-18T06:49:10;1.45;;;1.35;;
24143;SDS011;12307;50.828;6.080;2022-10-18T06:51:38;1.42;;;1.33;;
24143;SDS011;12307;50.828;6.080;2022-10-18T06:54:04;1.35;;;1.25;;
24143;SDS011;12307;50.828;6.080;2022-10-18T06:56:29;1.50;;;1.40;;
24143;SDS011;12307;50.828;6.080;2022-10-18T06:58:55;1.90;;;1.60;;
24143;SDS011;12307;50.828;6.080;2022-10-18T07:01:21;1.90;;;1.48;;
24143;SDS011;12307;50.828;6.080;2022-10-18T07:03:47;1.33;;;1.23;;
24143;SDS011;12307;50.828;6.080;2022-10-18T07:06:17;2.33;;;1.70;;
24143;SDS011;12307;50.828;6.080;2022-10-18T07:08:43;1.95;;;1.50;;
24143;SDS011;12307;50.828;6.080;2022-10-18T07:11:12;1.73;;;1.45;;
24143;SDS011;12307;50.828;6.080;2022-10-18T07:13:40;1.63;;;1.52;;
24143;SDS011;12307;50.828;6.080;2022-10-18T07:16:06;1.67;;;1.50;;
24143;SDS011;12307;50.828;6.080;2022-10-18T07:18:33;1.65;;;1.55;;
24143;SDS011;12307;50.828;6.080;2022-10-18T07:21:01;1.60;;;1.50;;
24143;SDS011;12307;50.828;6.080;2022-10-18T07:23:28;1.60;;;1.50;;
24143;SDS011;12307;50.828;6.080;2022-10-18T07:25:55;1.60;;;1.38;;
24143;SDS011;12307;50.828;6.080;2022-10-18T07:28:21;1.55;;;1.45;;
24143;SDS011;12307;50.828;6.080;2022-10-18T07:30:47;1.45;;;1.30;;
24143;SDS011;12307;50.828;6.080;2022-10-18T07:33:12;1.55;;;1.42;;
24143;SDS011;12307;50.828;6.080;2022-10-18T07:35:38;1.40;;;1.30;;
24143;SDS011;12307;50.828;6.080;2022-10-18T07:38:04;1.50;;;1.40;;
24143;SDS011;12307;50.828;6.080;2022-10-18T07:40:31;1.83;;;1.70;;
24143;SDS011;12307;50.828;6.080;2022-10-18T07:42:56;1.80;;;1.65;;
24143;SDS011;12307;50.828;6.080;2022-10-18T07:45:22;1.70;;;1.60;;
24143;SDS011;12307;50.828;6.080;2022-10-18T07:47:52;1.55;;;1.45;;
24143;SDS011;12307;50.828;6.080;2022-10-18T07:50:18;2.47;;;2.10;;
24143;SDS011;12307;50.828;6.080;2022-10-18T07:52:44;2.17;;;1.70;;
24143;SDS011;12307;50.828;6.080;2022-10-18T07:55:10;2.05;;;1.80;;
24143;SDS011;12307;50.828;6.080;2022-10-18T07:57:37;1.60;;;1.50;;
24143;SDS011;12307;50.828;6.080;2022-10-18T08:00:03;2.17;;;1.90;;
24143;SDS011;12307;50.828;6.080;2022-10-18T08:02:29;2.90;;;1.73;;
24143;SDS011;12307;50.828;6.080;2022-10-18T08:04:55;3.13;;;2.30;;
24143;SDS011;12307;50.828;6.080;2022-10-18T08:07:20;3.92;;;2.28;;
24143;SDS011;12307;50.828;6.080;2022-10-18T08:09:46;2.40;;;2.20;;
24143;SDS011;12307;50.828;6.080;2022-10-18T08:12:12;3.92;;;2.40;;
24143;SDS011;12307;50.828;6.080;2022-10-18T08:14:40;3.25;;;2.40;;
24143;SDS011;12307;50.828;6.080;2022-10-18T08:17:06;3.67;;;2.60;;
24143;SDS011;12307;50.828;6.080;2022-10-18T08:19:32;5.18;;;2.55;;
24143;SDS011;12307;50.828;6.080;2022-10-18T08:21:58;3.83;;;2.65;;
24143;SDS011;12307;50.828;6.080;2022-10-18T08:24:23;4.65;;;2.95;;
24143;SDS011;12307;50.828;6.080;2022-10-18T08:26:49;4.28;;;3.10;;
24143;SDS011;12307;50.828;6.080;2022-10-18T08:29:15;5.47;;;2.80;;
24143;SDS011;12307;50.828;6.080;2022-10-18T08:31:42;3.55;;;2.80;;
24143;SDS011;12307;50.828;6.080;2022-10-18T08:34:08;7.70;;;3.03;;
24143;SDS011;12307;50.828;6.080;2022-10-18T08:36:33;4.15;;;3.00;;
24143;SDS011;12307;50.828;6.080;2022-10-18T08:38:59;5.60;;;2.67;;
24143;SDS011;12307;50.828;6.080;2022-10-18T08:44:27;4.65;;;3.40;;
24143;SDS011;12307;50.828;6.080;2022-10-18T08:46:58;4.28;;;3.00;;
24143;SDS011;12307;50.828;6.080;2022-10-18T08:49:28;4.50;;;3.42;;
24143;SDS011;12307;50.828;6.080;2022-10-18T08:52:00;5.93;;;3.20;;
24143;SDS011;12307;50.828;6.080;2022-10-18T08:54:29;5.15;;;3.47;;
24143;SDS011;12307;50.828;6.080;2022-10-18T08:56:59;4.55;;;3.00;;
24143;SDS011;12307;50.828;6.080;2022-10-18T08:59:28;4.40;;;3.45;;
24143;SDS011;12307;50.828;6.080;2022-10-18T09:02:04;4.95;;;3.53;;
24143;SDS011;12307;50.828;6.080;2022-10-18T09:04:43;4.85;;;3.90;;
24143;SDS011;12307;50.828;6.080;2022-10-18T09:07:21;5.72;;;4.03;;
24143;SDS011;12307;50.828;6.080;2022-10-18T09:10:02;4.35;;;3.40;;
24143;SDS011;12307;50.828;6.080;2022-10-18T09:12:42;7.28;;;3.70;;
24143;SDS011;12307;50.828;6.080;2022-10-18T09:15:21;4.43;;;3.63;;
24143;SDS011;12307;50.828;6.080;2022-10-18T09:17:58;6.18;;;3.30;;
24143;SDS011;12307;50.828;6.080;2022-10-18T09:20:39;3.83;;;3.08;;
24143;SDS011;12307;50.828;6.080;2022-10-18T09:23:14;5.30;;;3.50;;
24143;SDS011;12307;50.828;6.080;2022-10-18T09:25:44;5.57;;;3.42;;
24143;SDS011;12307;50.828;6.080;2022-10-18T09:28:15;4.78;;;3.85;;
24143;SDS011;12307;50.828;6.080;2022-10-18T09:30:50;5.07;;;3.33;;
24143;SDS011;12307;50.828;6.080;2022-10-18T09:33:28;4.15;;;3.67;;
24143;SDS011;12307;50.828;6.080;2022-10-18T09:36:04;6.82;;;4.07;;
24143;SDS011;12307;50.828;6.080;2022-10-18T09:38:32;5.68;;;3.95;;
24143;SDS011;12307;50.828;6.080;2022-10-18T09:41:06;6.65;;;4.70;;
24143;SDS011;12307;50.828;6.080;2022-10-18T09:43:38;5.82;;;4.53;;
24143;SDS011;12307;50.828;6.080;2022-10-18T09:46:11;5.57;;;4.30;;
24143;SDS011;12307;50.828;6.080;2022-10-18T09:48:42;5.65;;;4.50;;
24143;SDS011;12307;50.828;6.080;2022-10-18T09:51:14;6.25;;;4.97;;
24143;SDS011;12307;50.828;6.080;2022-10-18T09:53:47;4.97;;;3.90;;
24143;SDS011;12307;50.828;6.080;2022-10-18T09:56:21;7.07;;;5.22;;
24143;SDS011;12307;50.828;6.080;2022-10-18T09:58:50;9.00;;;5.50;;
24143;SDS011;12307;50.828;6.080;2022-10-18T10:01:17;7.65;;;5.30;;
24143;SDS011;12307;50.828;6.080;2022-10-18T10:03:47;6.88;;;5.35;;
24143;SDS011;12307;50.828;6.080;2022-10-18T10:06:14;8.70;;;5.95;;
24143;SDS011;12307;50.828;6.080;2022-10-18T10:08:47;6.30;;;5.35;;
24143;SDS011;12307;50.828;6.080;2022-10-18T10:11:31;6.78;;;5.13;;
24143;SDS011;12307;50.828;6.080;2022-10-18T10:14:08;5.75;;;4.63;;
24143;SDS011;12307;50.828;6.080;2022-10-18T10:16:47;10.65;;;7.13;;
24143;SDS011;12307;50.828;6.080;2022-10-18T10:19:20;10.07;;;7.07;;
24143;SDS011;12307;50.828;6.080;2022-10-18T10:21:49;10.63;;;7.07;;
24143;SDS011;12307;50.828;6.080;2022-10-18T10:24:21;10.80;;;7.22;;
24143;SDS011;12307;50.828;6.080;2022-10-18T10:26:49;11.52;;;9.10;;
24143;SDS011;12307;50.828;6.080;2022-10-18T10:32:21;11.25;;;8.40;;
24143;SDS011;12307;50.828;6.080;2022-10-18T10:34:51;11.38;;;8.52;;
24143;SDS011;12307;50.828;6.080;2022-10-18T10:37:28;9.63;;;7.82;;
24143;SDS011;12307;50.828;6.080;2022-10-18T10:40:06;11.35;;;8.70;;
24143;SDS011;12307;50.828;6.080;2022-10-18T10:42:48;14.45;;;8.55;;
24143;SDS011;12307;50.828;6.080;2022-10-18T10:45:17;12.82;;;9.23;;
24143;SDS011;12307;50.828;6.080;2022-10-18T10:47:44;13.95;;;9.00;;
24143;SDS011;12307;50.828;6.080;2022-10-18T10:50:13;13.15;;;10.38;;
24143;SDS011;12307;50.828;6.080;2022-10-18T10:52:48;14.68;;;10.27;;
24143;SDS011;12307;50.828;6.080;2022-10-18T10:55:15;14.43;;;9.48;;
24143;SDS011;12307;50.828;6.080;2022-10-18T10:57:43;16.33;;;9.63;;
24143;SDS011;12307;50.828;6.080;2022-10-18T11:03:06;12.45;;;8.95;;
24143;SDS011;12307;50.828;6.080;2022-10-18T11:05:42;13.75;;;8.93;;
24143;SDS011;12307;50.828;6.080;2022-10-18T11:08:10;11.82;;;8.93;;
24143;SDS011;12307;50.828;6.080;2022-10-18T11:10:41;14.80;;;10.60;;
24143;SDS011;12307;50.828;6.080;2022-10-18T11:13:20;15.40;;;9.68;;
24143;SDS011;12307;50.828;6.080;2022-10-18T11:15:53;18.05;;;11.27;;
24143;SDS011;12307;50.828;6.080;2022-10-18T11:18:25;14.65;;;9.30;;
24143;SDS011;12307;50.828;6.080;2022-10-18T11:20:57;16.88;;;9.80;;
24143;SDS011;12307;50.828;6.080;2022-10-18T11:23:26;11.88;;;9.55;;
24143;SDS011;12307;50.828;6.080;2022-10-18T11:26:02;12.07;;;9.13;;
24143;SDS011;12307;50.828;6.080;2022-10-18T11:28:42;17.73;;;9.63;;
24143;SDS011;12307;50.828;6.080;2022-10-18T11:31:20;16.42;;;9.82;;
24143;SDS011;12307;50.828;6.080;2022-10-18T11:33:56;15.48;;;11.85;;
24143;SDS011;12307;50.828;6.080;2022-10-18T11:36:31;17.98;;;10.98;;
24143;SDS011;12307;50.828;6.080;2022-10-18T11:39:02;14.75;;;10.85;;
24143;SDS011;12307;50.828;6.080;2022-10-18T11:41:34;17.23;;;10.10;;
24143;SDS011;12307;50.828;6.080;2022-10-18T11:44:07;10.75;;;9.15;;
24143;SDS011;12307;50.828;6.080;2022-10-18T11:46:43;13.82;;;10.80;;
24143;SDS011;12307;50.828;6.080;2022-10-18T11:49:28;13.13;;;9.38;;
24143;SDS011;12307;50.828;6.080;2022-10-18T11:52:09;12.35;;;9.70;;
24143;SDS011;12307;50.828;6.080;2022-10-18T11:57:38;13.43;;;10.10;;
24143;SDS011;12307;50.828;6.080;2022-10-18T12:00:14;12.90;;;10.50;;
24143;SDS011;12307;50.828;6.080;2022-10-18T12:03:10;13.73;;;9.63;;
24143;SDS011;12307;50.828;6.080;2022-10-18T12:05:55;11.40;;;9.52;;
24143;SDS011;12307;50.828;6.080;2022-10-18T12:08:27;12.70;;;10.15;;
24143;SDS011;12307;50.828;6.080;2022-10-18T12:10:59;13.57;;;9.40;;
24143;SDS011;12307;50.828;6.080;2022-10-18T12:13:33;10.85;;;9.32;;
24143;SDS011;12307;50.828;6.080;2022-10-18T12:16:03;13.00;;;9.55;;
24143;SDS011;12307;50.828;6.080;2022-10-18T12:18:31;12.68;;;9.52;;
24143;SDS011;12307;50.828;6.080;2022-10-18T12:20:58;10.27;;;9.07;;
24143;SDS011;12307;50.828;6.080;2022-10-18T12:23:29;12.15;;;9.52;;
24143;SDS011;12307;50.828;6.080;2022-10-18T12:26:01;12.95;;;9.48;;
24143;SDS011;12307;50.828;6.080;2022-10-18T12:28:31;11.80;;;9.52;;
24143;SDS011;12307;50.828;6.080;2022-10-18T12:31:05;10.82;;;8.82;;
24143;SDS011;12307;50.828;6.080;2022-10-18T12:33:37;10.95;;;8.65;;
24143;SDS011;12307;50.828;6.080;2022-10-18T12:36:10;9.80;;;8.77;;
24143;SDS011;12307;50.828;6.080;2022-10-18T12:38:44;13.73;;;8.65;;
24143;SDS011;12307;50.828;6.080;2022-10-18T12:41:14;11.60;;;9.38;;
24143;SDS011;12307;50.828;6.080;2022-10-18T12:43:49;11.18;;;8.82;;
24143;SDS011;12307;50.828;6.080;2022-10-18T12:46:16;11.02;;;8.63;;
24143;SDS011;12307;50.828;6.080;2022-10-18T12:48:42;11.27;;;8.73;;
24143;SDS011;12307;50.828;6.080;2022-10-18T12:51:12;10.10;;;8.30;;
24143;SDS011;12307;50.828;6.080;2022-10-18T12:53:40;9.43;;;8.25;;
24143;SDS011;12307;50.828;6.080;2022-10-18T13:02:17;10.13;;;8.30;;
24143;SDS011;12307;50.828;6.080;2022-10-18T13:04:51;10.40;;;8.25;;
24143;SDS011;12307;50.828;6.080;2022-10-18T13:07:18;10.50;;;8.45;;
24143;SDS011;12307;50.828;6.080;2022-10-18T13:13:17;11.15;;;8.55;;
24143;SDS011;12307;50.828;6.080;2022-10-18T13:16:01;11.38;;;8.05;;
24143;SDS011;12307;50.828;6.080;2022-10-18T13:18:32;9.00;;;7.88;;
24143;SDS011;12307;50.828;6.080;2022-10-18T13:21:08;10.25;;;7.57;;
24143;SDS011;12307;50.828;6.080;2022-10-18T13:23:41;8.93;;;8.02;;
24143;SDS011;12307;50.828;6.080;2022-10-18T13:26:22;10.35;;;8.20;;
24143;SDS011;12307;50.828;6.080;2022-10-18T13:28:58;9.85;;;8.13;;
24143;SDS011;12307;50.828;6.080;2022-10-18T13:31:35;9.95;;;8.05;;
24143;SDS011;12307;50.828;6.080;2022-10-18T13:36:56;9.63;;;8.07;;
24143;SDS011;12307;50.828;6.080;2022-10-18T13:39:23;9.00;;;8.10;;
24143;SDS011;12307;50.828;6.080;2022-10-18T13:44:55;11.30;;;8.82;;
24143;SDS011;12307;50.828;6.080;2022-10-18T13:47:55;13.55;;;9.40;;
24143;SDS011;12307;50.828;6.080;2022-10-18T13:50:26;11.82;;;9.57;;
24143;SDS011;12307;50.828;6.080;2022-10-18T13:53:02;10.25;;;8.73;;
24143;SDS011;12307;50.828;6.080;2022-10-18T13:55:59;10.65;;;8.50;;
24143;SDS011;12307;50.828;6.080;2022-10-18T13:58:47;13.75;;;9.23;;
24143;SDS011;12307;50.828;6.080;2022-10-18T14:01:25;12.00;;;9.43;;
24143;SDS011;12307;50.828;6.080;2022-10-18T14:06:56;13.18;;;9.40;;
24143;SDS011;12307;50.828;6.080;2022-10-18T14:09:25;16.75;;;9.90;;
24143;SDS011;12307;50.828;6.080;2022-10-18T14:11:54;13.68;;;9.68;;
24143;SDS011;12307;50.828;6.080;2022-10-18T14:14:27;13.85;;;9.60;;
24143;SDS011;12307;50.828;6.080;2022-10-18T14:17:00;11.57;;;8.98;;
24143;SDS011;12307;50.828;6.080;2022-10-18T14:19:31;15.43;;;10.05;;
24143;SDS011;12307;50.828;6.080;2022-10-18T14:22:03;15.32;;;9.95;;
24143;SDS011;12307;50.828;6.080;2022-10-18T14:24:36;12.80;;;9.25;;
24143;SDS011;12307;50.828;6.080;2022-10-18T14:30:05;12.90;;;8.98;;
24143;SDS011;12307;50.828;6.080;2022-10-18T14:32:34;13.52;;;9.23;;
24143;SDS011;12307;50.828;6.080;2022-10-18T14:35:00;12.25;;;9.30;;
24143;SDS011;12307;50.828;6.080;2022-10-18T14:37:28;12.32;;;9.35;;
24143;SDS011;12307;50.828;6.080;2022-10-18T14:39:57;12.32;;;8.88;;
24143;SDS011;12307;50.828;6.080;2022-10-18T14:42:23;13.90;;;9.30;;
24143;SDS011;12307;50.828;6.080;2022-10-18T14:44:50;12.45;;;9.80;;
24143;SDS011;12307;50.828;6.080;2022-10-18T14:47:19;12.43;;;9.02;;
24143;SDS011;12307;50.828;6.080;2022-10-18T14:49:48;14.23;;;9.80;;
24143;SDS011;12307;50.828;6.080;2022-10-18T14:52:15;13.90;;;9.85;;
24143;SDS011;12307;50.828;6.080;2022-10-18T14:54:43;11.45;;;9.00;;
24143;SDS011;12307;50.828;6.080;2022-10-18T14:57:14;12.40;;;10.00;;
24143;SDS011;12307;50.828;6.080;2022-10-18T14:59:45;11.55;;;9.07;;
24143;SDS011;12307;50.828;6.080;2022-10-18T15:02:16;13.32;;;9.82;;
24143;SDS011;12307;50.828;6.080;2022-10-18T15:04:53;12.55;;;9.57;;
24143;SDS011;12307;50.828;6.080;2022-10-18T15:07:19;13.63;;;9.85;;
24143;SDS011;12307;50.828;6.080;2022-10-18T15:09:46;14.15;;;9.43;;
24143;SDS011;12307;50.828;6.080;2022-10-18T15:12:13;12.93;;;9.82;;
24143;SDS011;12307;50.828;6.080;2022-10-18T15:14:40;14.52;;;9.93;;
24143;SDS011;12307;50.828;6.080;2022-10-18T15:17:07;12.95;;;9.52;;
24143;SDS011;12307;50.828;6.080;2022-10-18T15:19:37;13.20;;;9.55;;
24143;SDS011;12307;50.828;6.080;2022-10-18T15:22:05;11.93;;;9.13;;
24143;SDS011;12307;50.828;6.080;2022-10-18T15:24:33;11.63;;;9.25;;
24143;SDS011;12307;50.828;6.080;2022-10-18T15:27:01;11.45;;;9.10;;
24143;SDS011;12307;50.828;6.080;2022-10-18T15:29:35;11.18;;;8.75;;
24143;SDS011;12307;50.828;6.080;2022-10-18T15:32:15;10.93;;;8.70;;